sensor_id;sensor_type;location;lat;lon;timestamp;temperature;humidity
46488;DHT22;32202;48.780;9.204;2023-05-10T00:01:23;15.80;99.90
46488;DHT22;32202;48.780;9.204;2023-05-10T00:03:48;15.80;99.90
46488;DHT22;32202;48.780;9.204;2023-05-10T00:06:14;15.70;99.90
46488;DHT22;32202;48.780;9.204;2023-05-10T00:08:40;15.70;99.90
46488;DHT22;32202;48.780;9.204;2023-05-10T00:11:05;15.60;99.90
46488;DHT22;32202;48.780;9.204;2023-05-10T00:13:31;15.50;99.90
46488;DHT22;32202;48.780;9.204;2023-05-10T00:15:56;15.40;99.90
46488;DHT22;32202;48.780;9.204;2023-05-10T00:18:22;15.40;99.90
46488;DHT22;32202;48.780;9.204;2023-05-10T00:20:47;15.40;99.90
46488;DHT22;32202;48.780;9.204;2023-05-10T00:23:14;15.30;99.90
46488;DHT22;32202;48.780;9.204;2023-05-10T00:25:39;15.30;99.90
46488;DHT22;32202;48.780;9.204;2023-05-10T00:28:05;15.30;99.90
46488;DHT22;32202;48.780;9.204;2023-05-10T00:30:30;15.30;99.90
46488;DHT22;32202;48.780;9.204;2023-05-10T00:32:56;15.30;99.90
46488;DHT22;32202;48.780;9.204;2023-05-10T00:35:21;15.20;99.90
46488;DHT22;32202;48.780;9.204;2023-05-10T00:37:47;15.20;99.90
46488;DHT22;32202;48.780;9.204;2023-05-10T00:40:12;15.20;99.90
46488;DHT22;32202;48.780;9.204;2023-05-10T00:42:38;15.10;99.90
46488;DHT22;32202;48.780;9.204;2023-05-10T00:45:04;15.10;99.90
46488;DHT22;32202;48.780;9.204;2023-05-10T00:47:29;15.20;99.90
46488;DHT22;32202;48.780;9.204;2023-05-10T00:49:55;15.20;99.90
46488;DHT22;32202;48.780;9.204;2023-05-10T00:52:21;15.20;99.90
46488;DHT22;32202;48.780;9.204;2023-05-10T00:54:48;15.10;99.90
46488;DHT22;32202;48.780;9.204;2023-05-10T00:57:14;15.10;99.90
46488;DHT22;32202;48.780;9.204;2023-05-10T00:59:40;15.10;99.90
46488;DHT22;32202;48.780;9.204;2023-05-10T01:02:06;15.10;99.90
46488;DHT22;32202;48.780;9.204;2023-05-10T01:04:31;15.00;99.90
46488;DHT22;32202;48.780;9.204;2023-05-10T01:06:57;15.00;99.90
46488;DHT22;32202;48.780;9.204;2023-05-10T01:09:23;15.00;99.90
46488;DHT22;32202;48.780;9.204;2023-05-10T01:11:50;15.00;99.90
46488;DHT22;32202;48.780;9.204;2023-05-10T01:14:16;15.00;99.90
46488;DHT22;32202;48.780;9.204;2023-05-10T01:16:43;14.90;99.90
46488;DHT22;32202;48.780;9.204;2023-05-10T01:19:11;14.90;99.90
46488;DHT22;32202;48.780;9.204;2023-05-10T01:21:38;14.90;99.90
46488;DHT22;32202;48.780;9.204;2023-05-10T01:37:20;14.70;99.90
46488;DHT22;32202;48.780;9.204;2023-05-10T01:39:51;14.70;99.90
46488;DHT22;32202;48.780;9.204;2023-05-10T01:42:21;14.70;99.90
46488;DHT22;32202;48.780;9.204;2023-05-10T01:44:54;14.70;99.90
46488;DHT22;32202;48.780;9.204;2023-05-10T01:47:25;14.70;99.90
46488;DHT22;32202;48.780;9.204;2023-05-10T01:49:54;14.70;99.90
46488;DHT22;32202;48.780;9.204;2023-05-10T01:52:24;14.70;99.90
46488;DHT22;32202;48.780;9.204;2023-05-10T01:54:55;14.60;99.90
46488;DHT22;32202;48.780;9.204;2023-05-10T01:57:24;14.60;99.90
46488;DHT22;32202;48.780;9.204;2023-05-10T02:02:54;14.70;99.90
46488;DHT22;32202;48.780;9.204;2023-05-10T02:05:20;14.60;99.90
46488;DHT22;32202;48.780;9.204;2023-05-10T02:07:46;14.60;99.90
46488;DHT22;32202;48.780;9.204;2023-05-10T02:10:12;14.60;99.90
46488;DHT22;32202;48.780;9.204;2023-05-10T02:12:39;14.50;99.90
46488;DHT22;32202;48.780;9.204;2023-05-10T02:15:06;14.50;99.90
46488;DHT22;32202;48.780;9.204;2023-05-10T02:17:32;14.50;99.90
46488;DHT22;32202;48.780;9.204;2023-05-10T02:19:59;14.40;99.90
46488;DHT22;32202;48.780;9.204;2023-05-10T02:22:29;14.40;99.90
46488;DHT22;32202;48.780;9.204;2023-05-10T02:24:55;14.30;99.90
46488;DHT22;32202;48.780;9.204;2023-05-10T02:27:21;14.30;99.90
46488;DHT22;32202;48.780;9.204;2023-05-10T02:29:47;14.30;99.90
46488;DHT22;32202;48.780;9.204;2023-05-10T02:32:13;14.30;99.90
46488;DHT22;32202;48.780;9.204;2023-05-10T02:34:39;14.20;99.90
46488;DHT22;32202;48.780;9.204;2023-05-10T02:37:05;14.20;99.90
46488;DHT22;32202;48.780;9.204;2023-05-10T02:39:32;14.20;99.90
46488;DHT22;32202;48.780;9.204;2023-05-10T02:41:58;14.10;99.90
46488;DHT22;32202;48.780;9.204;2023-05-10T02:44:24;14.20;99.90
46488;DHT22;32202;48.780;9.204;2023-05-10T02:46:52;14.20;99.90
46488;DHT22;32202;48.780;9.204;2023-05-10T02:49:17;14.20;99.90
46488;DHT22;32202;48.780;9.204;2023-05-10T02:51:47;14.30;99.90
46488;DHT22;32202;48.780;9.204;2023-05-10T02:54:15;14.30;99.90
46488;DHT22;32202;48.780;9.204;2023-05-10T02:56:48;14.30;99.90
46488;DHT22;32202;48.780;9.204;2023-05-10T02:59:15;14.30;99.90
46488;DHT22;32202;48.780;9.204;2023-05-10T03:01:41;14.30;99.90
46488;DHT22;32202;48.780;9.204;2023-05-10T03:04:06;14.20;99.90
46488;DHT22;32202;48.780;9.204;2023-05-10T03:06:32;14.30;99.90
46488;DHT22;32202;48.780;9.204;2023-05-10T03:08:58;14.20;99.90
46488;DHT22;32202;48.780;9.204;2023-05-10T03:11:28;14.30;99.90
46488;DHT22;32202;48.780;9.204;2023-05-10T03:14:10;14.20;99.90
46488;DHT22;32202;48.780;9.204;2023-05-10T03:16:50;14.30;99.90
46488;DHT22;32202;48.780;9.204;2023-05-10T03:19:20;14.30;99.90
46488;DHT22;32202;48.780;9.204;2023-05-10T03:21:49;14.30;99.90
46488;DHT22;32202;48.780;9.204;2023-05-10T03:24:16;14.30;99.90
46488;DHT22;32202;48.780;9.204;2023-05-10T03:26:42;14.30;99.90
46488;DHT22;32202;48.780;9.204;2023-05-10T03:29:08;14.30;99.90
46488;DHT22;32202;48.780;9.204;2023-05-10T03:31:34;14.30;99.90
46488;DHT22;32202;48.780;9.204;2023-05-10T03:33:59;14.30;99.90
46488;DHT22;32202;48.780;9.204;2023-05-10T03:36:25;14.30;99.90
46488;DHT22;32202;48.780;9.204;2023-05-10T03:38:50;14.30;99.90
46488;DHT22;32202;48.780;9.204;2023-05-10T03:41:16;14.30;99.90
46488;DHT22;32202;48.780;9.204;2023-05-10T03:43:42;14.30;99.90
46488;DHT22;32202;48.780;9.204;2023-05-10T03:46:07;14.20;99.90
46488;DHT22;32202;48.780;9.204;2023-05-10T03:48:33;14.20;99.90
46488;DHT22;32202;48.780;9.204;2023-05-10T03:50:58;14.20;99.90
46488;DHT22;32202;48.780;9.204;2023-05-10T03:53:24;14.20;99.90
46488;DHT22;32202;48.780;9.204;2023-05-10T03:55:49;14.20;99.90
46488;DHT22;32202;48.780;9.204;2023-05-10T03:58:15;14.20;99.90
46488;DHT22;32202;48.780;9.204;2023-05-10T04:00:40;14.30;99.90
46488;DHT22;32202;48.780;9.204;2023-05-10T04:03:11;14.30;99.90
46488;DHT22;32202;48.780;9.204;2023-05-10T04:05:36;14.30;99.90
46488;DHT22;32202;48.780;9.204;2023-05-10T04:08:02;14.30;99.90
46488;DHT22;32202;48.780;9.204;2023-05-10T04:10:28;14.30;99.90
46488;DHT22;32202;48.780;9.204;2023-05-10T04:12:53;14.20;99.90
46488;DHT22;32202;48.780;9.204;2023-05-10T04:15:18;14.20;99.90
46488;DHT22;32202;48.780;9.204;2023-05-10T04:17:44;14.20;99.90
46488;DHT22;32202;48.780;9.204;2023-05-10T04:20:10;14.20;99.90
46488;DHT22;32202;48.780;9.204;2023-05-10T04:22:35;14.30;99.90
46488;DHT22;32202;48.780;9.204;2023-05-10T04:25:01;14.20;99.90
46488;DHT22;32202;48.780;9.204;2023-05-10T04:27:26;14.20;99.90
46488;DHT22;32202;48.780;9.204;2023-05-10T04:29:52;14.20;99.90
46488;DHT22;32202;48.780;9.204;2023-05-10T04:32:17;14.20;99.90
46488;DHT22;32202;48.780;9.204;2023-05-10T04:34:44;14.30;99.90
46488;DHT22;32202;48.780;9.204;2023-05-10T04:37:09;14.30;99.90
46488;DHT22;32202;48.780;9.204;2023-05-10T04:39:35;14.30;99.90
46488;DHT22;32202;48.780;9.204;2023-05-10T04:42:01;14.40;99.90
46488;DHT22;32202;48.780;9.204;2023-05-10T04:44:28;14.40;99.90
46488;DHT22;32202;48.780;9.204;2023-05-10T04:46:53;14.50;99.90
46488;DHT22;32202;48.780;9.204;2023-05-10T04:49:19;14.50;99.90
46488;DHT22;32202;48.780;9.204;2023-05-10T04:51:45;14.50;99.90
46488;DHT22;32202;48.780;9.204;2023-05-10T04:54:10;14.60;99.90
46488;DHT22;32202;48.780;9.204;2023-05-10T04:56:36;14.60;99.90
46488;DHT22;32202;48.780;9.204;2023-05-10T04:59:01;14.70;99.90
46488;DHT22;32202;48.780;9.204;2023-05-10T05:01:27;14.70;99.90
46488;DHT22;32202;48.780;9.204;2023-05-10T05:03:52;14.70;99.90
46488;DHT22;32202;48.780;9.204;2023-05-10T05:06:18;14.70;99.90
46488;DHT22;32202;48.780;9.204;2023-05-10T05:08:43;14.70;99.90
46488;DHT22;32202;48.780;9.204;2023-05-10T05:11:09;14.80;99.90
46488;DHT22;32202;48.780;9.204;2023-05-10T05:13:34;14.90;99.90
46488;DHT22;32202;48.780;9.204;2023-05-10T05:16:00;15.00;99.90
46488;DHT22;32202;48.780;9.204;2023-05-10T05:18:26;15.00;99.90
46488;DHT22;32202;48.780;9.204;2023-05-10T05:20:52;15.10;99.90
46488;DHT22;32202;48.780;9.204;2023-05-10T05:23:17;15.20;99.90
46488;DHT22;32202;48.780;9.204;2023-05-10T05:25:44;15.10;99.90
46488;DHT22;32202;48.780;9.204;2023-05-10T05:28:09;15.10;99.90
46488;DHT22;32202;48.780;9.204;2023-05-10T05:30:34;15.10;99.90
46488;DHT22;32202;48.780;9.204;2023-05-10T05:33:00;15.10;99.90
46488;DHT22;32202;48.780;9.204;2023-05-10T05:35:25;15.20;99.90
46488;DHT22;32202;48.780;9.204;2023-05-10T05:37:51;15.20;99.90
46488;DHT22;32202;48.780;9.204;2023-05-10T05:40:17;15.20;99.90
46488;DHT22;32202;48.780;9.204;2023-05-10T05:42:42;15.30;99.90
46488;DHT22;32202;48.780;9.204;2023-05-10T05:45:08;15.30;99.90
46488;DHT22;32202;48.780;9.204;2023-05-10T05:47:34;15.50;99.90
46488;DHT22;32202;48.780;9.204;2023-05-10T05:49:59;15.60;99.90
46488;DHT22;32202;48.780;9.204;2023-05-10T05:52:25;15.60;99.90
46488;DHT22;32202;48.780;9.204;2023-05-10T05:54:50;15.60;99.90
46488;DHT22;32202;48.780;9.204;2023-05-10T05:57:16;15.70;99.90
46488;DHT22;32202;48.780;9.204;2023-05-10T05:59:41;15.70;99.90
46488;DHT22;32202;48.780;9.204;2023-05-10T06:02:09;15.80;99.90
46488;DHT22;32202;48.780;9.204;2023-05-10T06:04:35;15.90;99.90
46488;DHT22;32202;48.780;9.204;2023-05-10T06:07:00;16.00;99.90
46488;DHT22;32202;48.780;9.204;2023-05-10T06:09:26;16.00;99.90
46488;DHT22;32202;48.780;9.204;2023-05-10T06:11:51;16.20;99.90
46488;DHT22;32202;48.780;9.204;2023-05-10T06:14:17;16.10;99.90
46488;DHT22;32202;48.780;9.204;2023-05-10T06:16:42;16.10;99.90
46488;DHT22;32202;48.780;9.204;2023-05-10T06:19:08;16.20;99.90
46488;DHT22;32202;48.780;9.204;2023-05-10T06:21:33;16.40;99.90
46488;DHT22;32202;48.780;9.204;2023-05-10T06:23:59;16.40;99.90
46488;DHT22;32202;48.780;9.204;2023-05-10T06:26:24;16.50;99.90
46488;DHT22;32202;48.780;9.204;2023-05-10T06:28:50;16.50;99.90
46488;DHT22;32202;48.780;9.204;2023-05-10T06:31:15;16.20;99.90
46488;DHT22;32202;48.780;9.204;2023-05-10T06:33:41;16.00;99.90
46488;DHT22;32202;48.780;9.204;2023-05-10T06:36:06;16.20;99.90
46488;DHT22;32202;48.780;9.204;2023-05-10T06:38:32;16.30;99.90
46488;DHT22;32202;48.780;9.204;2023-05-10T06:40:58;16.30;99.90
46488;DHT22;32202;48.780;9.204;2023-05-10T06:43:24;16.20;99.90
46488;DHT22;32202;48.780;9.204;2023-05-10T06:45:50;16.20;99.90
46488;DHT22;32202;48.780;9.204;2023-05-10T06:48:15;16.10;99.90
46488;DHT22;32202;48.780;9.204;2023-05-10T06:50:41;16.10;99.90
46488;DHT22;32202;48.780;9.204;2023-05-10T06:53:06;15.90;99.90
46488;DHT22;32202;48.780;9.204;2023-05-10T06:55:31;15.90;99.90
46488;DHT22;32202;48.780;9.204;2023-05-10T06:57:57;15.90;99.90
46488;DHT22;32202;48.780;9.204;2023-05-10T07:00:23;15.90;99.90
46488;DHT22;32202;48.780;9.204;2023-05-10T07:02:48;16.00;99.90
46488;DHT22;32202;48.780;9.204;2023-05-10T07:05:13;16.00;99.90
46488;DHT22;32202;48.780;9.204;2023-05-10T07:07:40;16.00;99.90
46488;DHT22;32202;48.780;9.204;2023-05-10T07:10:06;15.90;99.90
46488;DHT22;32202;48.780;9.204;2023-05-10T07:12:32;15.90;99.90
46488;DHT22;32202;48.780;9.204;2023-05-10T07:14:57;16.00;99.90
46488;DHT22;32202;48.780;9.204;2023-05-10T07:17:23;16.20;99.90
46488;DHT22;32202;48.780;9.204;2023-05-10T07:19:48;16.20;99.90
46488;DHT22;32202;48.780;9.204;2023-05-10T07:22:14;16.40;99.90
46488;DHT22;32202;48.780;9.204;2023-05-10T07:24:40;16.80;99.90
46488;DHT22;32202;48.780;9.204;2023-05-10T07:27:05;17.20;99.90
46488;DHT22;32202;48.780;9.204;2023-05-10T07:29:31;17.50;99.10
46488;DHT22;32202;48.780;9.204;2023-05-10T07:31:56;18.10;97.40
46488;DHT22;32202;48.780;9.204;2023-05-10T07:34:22;18.20;94.80
46488;DHT22;32202;48.780;9.204;2023-05-10T07:36:47;18.40;95.60
46488;DHT22;32202;48.780;9.204;2023-05-10T07:39:13;18.50;94.40
46488;DHT22;32202;48.780;9.204;2023-05-10T07:41:38;18.30;94.20
46488;DHT22;32202;48.780;9.204;2023-05-10T07:44:04;18.00;94.70
46488;DHT22;32202;48.780;9.204;2023-05-10T07:46:30;18.20;95.20
46488;DHT22;32202;48.780;9.204;2023-05-10T07:48:55;18.30;94.40
46488;DHT22;32202;48.780;9.204;2023-05-10T07:51:21;18.50;93.20
46488;DHT22;32202;48.780;9.204;2023-05-10T07:53:46;18.80;93.00
46488;DHT22;32202;48.780;9.204;2023-05-10T07:58:46;18.60;90.10
46488;DHT22;32202;48.780;9.204;2023-05-10T08:01:12;18.20;90.10
46488;DHT22;32202;48.780;9.204;2023-05-10T08:03:37;18.40;90.30
46488;DHT22;32202;48.780;9.204;2023-05-10T08:06:03;18.20;88.10
46488;DHT22;32202;48.780;9.204;2023-05-10T08:08:30;18.30;88.90
46488;DHT22;32202;48.780;9.204;2023-05-10T08:10:55;18.10;89.40
46488;DHT22;32202;48.780;9.204;2023-05-10T08:13:21;18.00;90.00
46488;DHT22;32202;48.780;9.204;2023-05-10T08:15:46;18.00;89.80
46488;DHT22;32202;48.780;9.204;2023-05-10T08:18:12;18.00;90.40
46488;DHT22;32202;48.780;9.204;2023-05-10T08:20:38;18.30;89.60
46488;DHT22;32202;48.780;9.204;2023-05-10T08:23:03;18.30;89.00
46488;DHT22;32202;48.780;9.204;2023-05-10T08:25:29;18.30;89.60
46488;DHT22;32202;48.780;9.204;2023-05-10T08:27:54;18.20;88.40
46488;DHT22;32202;48.780;9.204;2023-05-10T08:30:20;18.00;88.80
46488;DHT22;32202;48.780;9.204;2023-05-10T08:32:45;17.90;89.20
46488;DHT22;32202;48.780;9.204;2023-05-10T08:35:10;17.70;90.00
46488;DHT22;32202;48.780;9.204;2023-05-10T08:37:36;17.40;90.50
46488;DHT22;32202;48.780;9.204;2023-05-10T08:40:01;17.40;91.00
46488;DHT22;32202;48.780;9.204;2023-05-10T08:42:28;17.40;91.40
46488;DHT22;32202;48.780;9.204;2023-05-10T08:44:54;17.50;91.10
46488;DHT22;32202;48.780;9.204;2023-05-10T08:47:20;17.70;91.30
46488;DHT22;32202;48.780;9.204;2023-05-10T08:49:46;17.90;91.50
46488;DHT22;32202;48.780;9.204;2023-05-10T08:52:13;18.00;90.90
46488;DHT22;32202;48.780;9.204;2023-05-10T08:54:40;18.10;90.90
46488;DHT22;32202;48.780;9.204;2023-05-10T08:57:06;18.30;90.30
46488;DHT22;32202;48.780;9.204;2023-05-10T08:59:31;18.60;90.10
46488;DHT22;32202;48.780;9.204;2023-05-10T09:01:58;18.90;87.10
46488;DHT22;32202;48.780;9.204;2023-05-10T09:04:24;19.40;84.20
46488;DHT22;32202;48.780;9.204;2023-05-10T09:06:50;19.70;81.40
46488;DHT22;32202;48.780;9.204;2023-05-10T09:09:16;20.00;79.80
46488;DHT22;32202;48.780;9.204;2023-05-10T09:11:42;20.30;77.50
46488;DHT22;32202;48.780;9.204;2023-05-10T09:14:08;20.50;75.50
46488;DHT22;32202;48.780;9.204;2023-05-10T09:16:34;20.40;75.50
46488;DHT22;32202;48.780;9.204;2023-05-10T09:19:00;20.50;74.70
46488;DHT22;32202;48.780;9.204;2023-05-10T09:21:25;20.60;74.10
46488;DHT22;32202;48.780;9.204;2023-05-10T09:23:51;20.50;73.60
46488;DHT22;32202;48.780;9.204;2023-05-10T09:26:23;20.60;72.40
46488;DHT22;32202;48.780;9.204;2023-05-10T09:28:56;20.30;71.40
46488;DHT22;32202;48.780;9.204;2023-05-10T09:31:21;20.10;73.10
46488;DHT22;32202;48.780;9.204;2023-05-10T09:33:48;19.50;72.20
46488;DHT22;32202;48.780;9.204;2023-05-10T09:36:14;19.30;73.40
46488;DHT22;32202;48.780;9.204;2023-05-10T09:38:46;19.10;73.10
46488;DHT22;32202;48.780;9.204;2023-05-10T09:41:20;19.20;73.70
46488;DHT22;32202;48.780;9.204;2023-05-10T09:43:46;19.40;73.10
46488;DHT22;32202;48.780;9.204;2023-05-10T09:46:12;19.80;72.80
46488;DHT22;32202;48.780;9.204;2023-05-10T09:48:44;20.10;71.80
46488;DHT22;32202;48.780;9.204;2023-05-10T09:51:10;19.90;69.90
46488;DHT22;32202;48.780;9.204;2023-05-10T09:53:36;19.30;71.80
46488;DHT22;32202;48.780;9.204;2023-05-10T09:56:01;19.50;72.30
46488;DHT22;32202;48.780;9.204;2023-05-10T09:58:27;20.00;70.70
46488;DHT22;32202;48.780;9.204;2023-05-10T10:00:52;20.00;69.60
46488;DHT22;32202;48.780;9.204;2023-05-10T10:03:19;20.20;69.80
46488;DHT22;32202;48.780;9.204;2023-05-10T10:05:45;20.40;69.70
46488;DHT22;32202;48.780;9.204;2023-05-10T10:08:12;20.90;68.50
46488;DHT22;32202;48.780;9.204;2023-05-10T10:10:37;21.30;67.40
46488;DHT22;32202;48.780;9.204;2023-05-10T10:13:06;21.50;66.60
46488;DHT22;32202;48.780;9.204;2023-05-10T10:15:32;21.40;66.20
46488;DHT22;32202;48.780;9.204;2023-05-10T10:17:58;21.20;67.00
46488;DHT22;32202;48.780;9.204;2023-05-10T10:20:24;21.10;67.70
46488;DHT22;32202;48.780;9.204;2023-05-10T10:22:50;20.80;67.80
46488;DHT22;32202;48.780;9.204;2023-05-10T10:25:16;20.90;68.70
46488;DHT22;32202;48.780;9.204;2023-05-10T10:35:10;21.40;65.50
46488;DHT22;32202;48.780;9.204;2023-05-10T10:37:45;21.80;64.70
46488;DHT22;32202;48.780;9.204;2023-05-10T10:42:48;22.10;63.20
46488;DHT22;32202;48.780;9.204;2023-05-10T10:45:15;21.90;63.40
46488;DHT22;32202;48.780;9.204;2023-05-10T10:47:41;21.80;63.30
46488;DHT22;32202;48.780;9.204;2023-05-10T10:50:08;21.70;63.40
46488;DHT22;32202;48.780;9.204;2023-05-10T10:55:01;21.40;64.50
46488;DHT22;32202;48.780;9.204;2023-05-10T10:57:27;21.10;64.70
46488;DHT22;32202;48.780;9.204;2023-05-10T11:00:40;20.50;65.90
46488;DHT22;32202;48.780;9.204;2023-05-10T11:02:47;20.10;65.90
46488;DHT22;32202;48.780;9.204;2023-05-10T11:05:33;19.40;64.90
46488;DHT22;32202;48.780;9.204;2023-05-10T11:08:00;19.10;65.30
46488;DHT22;32202;48.780;9.204;2023-05-10T11:10:26;18.70;65.70
46488;DHT22;32202;48.780;9.204;2023-05-10T11:15:30;18.30;66.80
46488;DHT22;32202;48.780;9.204;2023-05-10T11:17:56;18.40;67.20
46488;DHT22;32202;48.780;9.204;2023-05-10T11:20:21;18.30;67.20
46488;DHT22;32202;48.780;9.204;2023-05-10T11:22:50;18.20;67.40
46488;DHT22;32202;48.780;9.204;2023-05-10T11:25:17;18.40;68.00
46488;DHT22;32202;48.780;9.204;2023-05-10T11:27:42;18.50;67.10
46488;DHT22;32202;48.780;9.204;2023-05-10T11:30:09;18.50;67.90
46488;DHT22;32202;48.780;9.204;2023-05-10T11:32:38;18.40;67.60
46488;DHT22;32202;48.780;9.204;2023-05-10T11:35:08;18.10;69.00
46488;DHT22;32202;48.780;9.204;2023-05-10T11:37:33;18.40;68.60
46488;DHT22;32202;48.780;9.204;2023-05-10T11:39:59;18.50;68.10
46488;DHT22;32202;48.780;9.204;2023-05-10T11:42:25;18.80;67.60
46488;DHT22;32202;48.780;9.204;2023-05-10T11:44:50;19.20;67.20
46488;DHT22;32202;48.780;9.204;2023-05-10T11:47:16;19.30;66.30
46488;DHT22;32202;48.780;9.204;2023-05-10T11:49:45;19.50;65.50
46488;DHT22;32202;48.780;9.204;2023-05-10T11:52:11;19.30;64.90
46488;DHT22;32202;48.780;9.204;2023-05-10T11:54:36;19.30;65.70
46488;DHT22;32202;48.780;9.204;2023-05-10T11:57:02;19.20;66.40
46488;DHT22;32202;48.780;9.204;2023-05-10T11:59:28;18.90;65.70
46488;DHT22;32202;48.780;9.204;2023-05-10T12:01:53;19.00;65.60
46488;DHT22;32202;48.780;9.204;2023-05-10T12:04:19;18.80;65.50
46488;DHT22;32202;48.780;9.204;2023-05-10T12:06:45;18.40;66.50
46488;DHT22;32202;48.780;9.204;2023-05-10T12:09:11;18.20;67.70
46488;DHT22;32202;48.780;9.204;2023-05-10T12:11:38;18.10;68.10
46488;DHT22;32202;48.780;9.204;2023-05-10T12:14:05;18.30;68.20
46488;DHT22;32202;48.780;9.204;2023-05-10T12:16:30;18.50;66.30
46488;DHT22;32202;48.780;9.204;2023-05-10T12:18:57;18.70;66.50
46488;DHT22;32202;48.780;9.204;2023-05-10T12:21:23;18.90;66.10
46488;DHT22;32202;48.780;9.204;2023-05-10T12:23:52;19.10;66.00
46488;DHT22;32202;48.780;9.204;2023-05-10T12:26:18;19.40;65.30
46488;DHT22;32202;48.780;9.204;2023-05-10T12:28:43;19.50;65.30
46488;DHT22;32202;48.780;9.204;2023-05-10T12:31:09;19.70;65.10
46488;DHT22;32202;48.780;9.204;2023-05-10T12:33:35;20.00;64.60
46488;DHT22;32202;48.780;9.204;2023-05-10T12:36:01;20.20;63.60
46488;DHT22;32202;48.780;9.204;2023-05-10T12:38:38;19.70;63.90
46488;DHT22;32202;48.780;9.204;2023-05-10T12:41:05;19.90;63.50
46488;DHT22;32202;48.780;9.204;2023-05-10T12:43:31;19.60;62.60
46488;DHT22;32202;48.780;9.204;2023-05-10T12:45:56;19.40;62.40
46488;DHT22;32202;48.780;9.204;2023-05-10T12:48:22;19.40;61.40
46488;DHT22;32202;48.780;9.204;2023-05-10T12:50:48;19.20;60.80
46488;DHT22;32202;48.780;9.204;2023-05-10T12:53:14;19.40;61.20
46488;DHT22;32202;48.780;9.204;2023-05-10T12:55:41;19.50;61.30
46488;DHT22;32202;48.780;9.204;2023-05-10T12:58:06;19.60;61.80
46488;DHT22;32202;48.780;9.204;2023-05-10T13:00:32;19.50;61.40
46488;DHT22;32202;48.780;9.204;2023-05-10T13:02:57;19.40;62.80
46488;DHT22;32202;48.780;9.204;2023-05-10T13:05:23;19.50;62.20
46488;DHT22;32202;48.780;9.204;2023-05-10T13:07:48;19.50;62.90
46488;DHT22;32202;48.780;9.204;2023-05-10T13:10:13;19.30;63.20
46488;DHT22;32202;48.780;9.204;2023-05-10T13:12:39;19.30;63.40
46488;DHT22;32202;48.780;9.204;2023-05-10T13:15:05;19.00;63.90
46488;DHT22;32202;48.780;9.204;2023-05-10T13:17:30;18.90;64.90
46488;DHT22;32202;48.780;9.204;2023-05-10T13:19:56;18.70;64.80
46488;DHT22;32202;48.780;9.204;2023-05-10T13:22:21;18.80;65.10
46488;DHT22;32202;48.780;9.204;2023-05-10T13:24:47;18.90;65.10
46488;DHT22;32202;48.780;9.204;2023-05-10T13:27:12;19.10;64.10
46488;DHT22;32202;48.780;9.204;2023-05-10T13:29:38;19.10;64.50
46488;DHT22;32202;48.780;9.204;2023-05-10T13:32:03;19.40;63.90
46488;DHT22;32202;48.780;9.204;2023-05-10T13:34:29;19.70;63.30
46488;DHT22;32202;48.780;9.204;2023-05-10T13:36:54;20.00;61.90
46488;DHT22;32202;48.780;9.204;2023-05-10T13:39:21;20.40;61.20
46488;DHT22;32202;48.780;9.204;2023-05-10T13:41:47;20.60;60.00
46488;DHT22;32202;48.780;9.204;2023-05-10T13:44:13;20.50;59.60
46488;DHT22;32202;48.780;9.204;2023-05-10T13:46:39;20.70;59.90
46488;DHT22;32202;48.780;9.204;2023-05-10T13:49:04;20.80;58.90
46488;DHT22;32202;48.780;9.204;2023-05-10T13:51:30;20.70;58.70
46488;DHT22;32202;48.780;9.204;2023-05-10T13:53:57;20.40;59.00
46488;DHT22;32202;48.780;9.204;2023-05-10T13:56:25;20.00;59.40
46488;DHT22;32202;48.780;9.204;2023-05-10T13:58:51;20.00;59.60
46488;DHT22;32202;48.780;9.204;2023-05-10T14:01:16;20.10;60.60
46488;DHT22;32202;48.780;9.204;2023-05-10T14:03:42;19.90;59.10
46488;DHT22;32202;48.780;9.204;2023-05-10T14:06:07;19.90;60.10
46488;DHT22;32202;48.780;9.204;2023-05-10T14:08:33;20.30;60.40
46488;DHT22;32202;48.780;9.204;2023-05-10T14:10:59;20.60;59.50
46488;DHT22;32202;48.780;9.204;2023-05-10T14:13:25;20.60;59.70
46488;DHT22;32202;48.780;9.204;2023-05-10T14:15:50;20.70;58.30
46488;DHT22;32202;48.780;9.204;2023-05-10T14:18:16;20.70;57.70
46488;DHT22;32202;48.780;9.204;2023-05-10T14:20:41;21.00;56.30
46488;DHT22;32202;48.780;9.204;2023-05-10T14:23:07;21.00;55.60
46488;DHT22;32202;48.780;9.204;2023-05-10T14:25:32;20.80;55.60
46488;DHT22;32202;48.780;9.204;2023-05-10T14:27:58;21.00;55.40
46488;DHT22;32202;48.780;9.204;2023-05-10T14:30:24;21.10;54.20
46488;DHT22;32202;48.780;9.204;2023-05-10T14:32:49;21.00;54.50
46488;DHT22;32202;48.780;9.204;2023-05-10T14:35:14;21.10;54.30
46488;DHT22;32202;48.780;9.204;2023-05-10T14:37:40;20.90;54.60
46488;DHT22;32202;48.780;9.204;2023-05-10T14:40:06;21.00;55.10
46488;DHT22;32202;48.780;9.204;2023-05-10T14:42:31;21.20;54.60
46488;DHT22;32202;48.780;9.204;2023-05-10T14:44:57;21.50;54.50
46488;DHT22;32202;48.780;9.204;2023-05-10T14:47:22;21.70;53.80
46488;DHT22;32202;48.780;9.204;2023-05-10T14:49:48;21.60;53.70
46488;DHT22;32202;48.780;9.204;2023-05-10T14:52:13;21.70;53.70
46488;DHT22;32202;48.780;9.204;2023-05-10T14:54:39;21.70;53.70
46488;DHT22;32202;48.780;9.204;2023-05-10T14:57:06;21.70;53.90
46488;DHT22;32202;48.780;9.204;2023-05-10T14:59:31;21.60;54.10
46488;DHT22;32202;48.780;9.204;2023-05-10T15:01:57;21.60;54.20
46488;DHT22;32202;48.780;9.204;2023-05-10T15:04:22;21.60;54.30
46488;DHT22;32202;48.780;9.204;2023-05-10T15:06:48;21.30;54.50
46488;DHT22;32202;48.780;9.204;2023-05-10T15:09:13;21.30;54.30
46488;DHT22;32202;48.780;9.204;2023-05-10T15:11:39;21.20;55.00
46488;DHT22;32202;48.780;9.204;2023-05-10T15:14:04;21.30;55.40
46488;DHT22;32202;48.780;9.204;2023-05-10T15:16:30;21.30;55.00
46488;DHT22;32202;48.780;9.204;2023-05-10T15:18:55;21.20;54.60
46488;DHT22;32202;48.780;9.204;2023-05-10T15:21:21;21.10;55.30
46488;DHT22;32202;48.780;9.204;2023-05-10T15:23:46;21.10;55.20
46488;DHT22;32202;48.780;9.204;2023-05-10T15:26:12;21.10;55.50
46488;DHT22;32202;48.780;9.204;2023-05-10T15:28:37;21.00;55.70
46488;DHT22;32202;48.780;9.204;2023-05-10T15:31:03;20.60;55.80
46488;DHT22;32202;48.780;9.204;2023-05-10T15:33:28;20.60;56.60
46488;DHT22;32202;48.780;9.204;2023-05-10T15:35:54;20.50;57.30
46488;DHT22;32202;48.780;9.204;2023-05-10T15:38:19;20.70;56.70
46488;DHT22;32202;48.780;9.204;2023-05-10T15:40:45;20.70;56.70
46488;DHT22;32202;48.780;9.204;2023-05-10T15:43:10;20.70;57.10
46488;DHT22;32202;48.780;9.204;2023-05-10T15:45:36;20.90;57.10
46488;DHT22;32202;48.780;9.204;2023-05-10T15:48:01;20.90;56.50
46488;DHT22;32202;48.780;9.204;2023-05-10T15:50:27;20.60;56.90
46488;DHT22;32202;48.780;9.204;2023-05-10T15:52:52;20.50;56.80
46488;DHT22;32202;48.780;9.204;2023-05-10T15:55:18;20.40;57.50
46488;DHT22;32202;48.780;9.204;2023-05-10T15:57:44;20.50;57.00